sensor_id;sensor_type;location;lat;lon;timestamp;P1;durP1;ratioP1;P2;durP2;ratioP2
13891;SDS011;7016;48.172;8.058;2022-11-03T00:00:10;12.40;;;4.70;;
13891;SDS011;7016;48.172;8.058;2022-11-03T00:02:45;13.27;;;4.50;;
13891;SDS011;7016;48.172;8.058;2022-11-03T00:05:18;12.13;;;4.90;;
13891;SDS011;7016;48.172;8.058;2022-11-03T00:08:27;8.13;;;2.75;;
13891;SDS011;7016;48.172;8.058;2022-11-03T00:11:00;11.52;;;3.20;;
13891;SDS011;7016;48.172;8.058;2022-11-03T00:13:43;7.97;;;2.78;;
13891;SDS011;7016;48.172;8.058;2022-11-03T00:16:11;8.05;;;2.75;;
13891;SDS011;7016;48.172;8.058;2022-11-03T00:18:38;7.80;;;3.30;;
13891;SDS011;7016;48.172;8.058;2022-11-03T00:21:12;13.60;;;4.60;;
13891;SDS011;7016;48.172;8.058;2022-11-03T00:23:44;10.70;;;4.05;;
13891;SDS011;7016;48.172;8.058;2022-11-03T00:26:25;8.05;;;3.65;;
13891;SDS011;7016;48.172;8.058;2022-11-03T00:29:06;10.20;;;3.55;;
13891;SDS011;7016;48.172;8.058;2022-11-03T00:31:37;8.90;;;3.03;;
13891;SDS011;7016;48.172;8.058;2022-11-03T00:34:08;13.93;;;2.85;;
13891;SDS011;7016;48.172;8.058;2022-11-03T00:36:39;6.03;;;2.22;;
13891;SDS011;7016;48.172;8.058;2022-11-03T00:39:13;9.40;;;3.03;;
13891;SDS011;7016;48.172;8.058;2022-11-03T00:41:42;10.48;;;2.70;;
13891;SDS011;7016;48.172;8.058;2022-11-03T00:44:26;8.90;;;2.72;;
13891;SDS011;7016;48.172;8.058;2022-11-03T00:47:04;9.52;;;3.00;;
13891;SDS011;7016;48.172;8.058;2022-11-03T00:49:42;7.28;;;2.95;;
13891;SDS011;7016;48.172;8.058;2022-11-03T00:52:22;14.35;;;3.40;;
13891;SDS011;7016;48.172;8.058;2022-11-03T00:54:56;8.40;;;3.60;;
13891;SDS011;7016;48.172;8.058;2022-11-03T00:57:26;8.70;;;3.13;;
13891;SDS011;7016;48.172;8.058;2022-11-03T00:59:58;7.15;;;3.13;;
13891;SDS011;7016;48.172;8.058;2022-11-03T01:02:42;12.27;;;2.90;;
13891;SDS011;7016;48.172;8.058;2022-11-03T01:05:15;9.55;;;3.20;;
13891;SDS011;7016;48.172;8.058;2022-11-03T01:08:08;10.25;;;3.47;;
13891;SDS011;7016;48.172;8.058;2022-11-03T01:10:43;6.78;;;3.20;;
13891;SDS011;7016;48.172;8.058;2022-11-03T01:13:29;10.60;;;3.10;;
13891;SDS011;7016;48.172;8.058;2022-11-03T01:15:56;10.50;;;2.95;;
13891;SDS011;7016;48.172;8.058;2022-11-03T01:18:30;8.70;;;3.25;;
13891;SDS011;7016;48.172;8.058;2022-11-03T01:21:01;5.85;;;2.13;;
13891;SDS011;7016;48.172;8.058;2022-11-03T01:23:39;7.32;;;2.50;;
13891;SDS011;7016;48.172;8.058;2022-11-03T01:26:11;7.28;;;2.03;;
13891;SDS011;7016;48.172;8.058;2022-11-03T01:28:44;6.88;;;1.98;;
13891;SDS011;7016;48.172;8.058;2022-11-03T01:31:17;7.28;;;2.00;;
13891;SDS011;7016;48.172;8.058;2022-11-03T01:33:53;8.45;;;2.60;;
13891;SDS011;7016;48.172;8.058;2022-11-03T01:36:23;12.40;;;2.80;;
13891;SDS011;7016;48.172;8.058;2022-11-03T01:39:14;7.32;;;2.22;;
13891;SDS011;7016;48.172;8.058;2022-11-03T01:41:47;5.97;;;1.83;;
13891;SDS011;7016;48.172;8.058;2022-11-03T01:44:25;6.80;;;2.22;;
13891;SDS011;7016;48.172;8.058;2022-11-03T01:47:11;7.70;;;2.95;;
13891;SDS011;7016;48.172;8.058;2022-11-03T01:52:38;7.78;;;2.65;;
13891;SDS011;7016;48.172;8.058;2022-11-03T01:55:27;8.35;;;2.55;;
13891;SDS011;7016;48.172;8.058;2022-11-03T02:00:44;10.52;;;2.47;;
13891;SDS011;7016;48.172;8.058;2022-11-03T02:03:18;8.70;;;2.70;;
13891;SDS011;7016;48.172;8.058;2022-11-03T02:05:46;6.43;;;2.80;;
13891;SDS011;7016;48.172;8.058;2022-11-03T02:08:22;8.52;;;2.42;;
13891;SDS011;7016;48.172;8.058;2022-11-03T02:11:03;8.18;;;2.20;;
13891;SDS011;7016;48.172;8.058;2022-11-03T02:13:55;5.93;;;2.25;;
13891;SDS011;7016;48.172;8.058;2022-11-03T02:16:28;6.70;;;2.45;;
13891;SDS011;7016;48.172;8.058;2022-11-03T02:19:14;6.05;;;2.25;;
13891;SDS011;7016;48.172;8.058;2022-11-03T02:22:25;8.30;;;1.92;;
13891;SDS011;7016;48.172;8.058;2022-11-03T02:28:00;7.45;;;2.28;;
13891;SDS011;7016;48.172;8.058;2022-11-03T02:30:38;11.40;;;2.45;;
13891;SDS011;7016;48.172;8.058;2022-11-03T02:36:06;7.45;;;2.67;;
13891;SDS011;7016;48.172;8.058;2022-11-03T02:38:59;10.43;;;2.50;;
13891;SDS011;7016;48.172;8.058;2022-11-03T02:41:44;8.00;;;2.35;;
13891;SDS011;7016;48.172;8.058;2022-11-03T02:44:13;5.75;;;2.00;;
13891;SDS011;7016;48.172;8.058;2022-11-03T02:46:49;14.65;;;2.30;;
13891;SDS011;7016;48.172;8.058;2022-11-03T02:49:52;6.85;;;2.10;;
13891;SDS011;7016;48.172;8.058;2022-11-03T02:52:38;6.28;;;2.45;;
13891;SDS011;7016;48.172;8.058;2022-11-03T02:55:19;7.97;;;2.72;;
13891;SDS011;7016;48.172;8.058;2022-11-03T03:00:53;7.32;;;1.95;;
13891;SDS011;7016;48.172;8.058;2022-11-03T03:03:34;9.13;;;2.55;;
13891;SDS011;7016;48.172;8.058;2022-11-03T03:06:12;6.78;;;1.98;;
13891;SDS011;7016;48.172;8.058;2022-11-03T03:08:53;6.07;;;2.15;;
13891;SDS011;7016;48.172;8.058;2022-11-03T03:11:48;5.72;;;1.92;;
13891;SDS011;7016;48.172;8.058;2022-11-03T03:14:23;5.45;;;1.80;;
13891;SDS011;7016;48.172;8.058;2022-11-03T03:22:37;6.82;;;1.95;;
13891;SDS011;7016;48.172;8.058;2022-11-03T03:28:03;3.55;;;1.80;;
13891;SDS011;7016;48.172;8.058;2022-11-03T03:30:59;4.05;;;1.73;;
13891;SDS011;7016;48.172;8.058;2022-11-03T03:33:40;4.32;;;1.50;;
13891;SDS011;7016;48.172;8.058;2022-11-03T03:36:19;6.32;;;2.05;;
13891;SDS011;7016;48.172;8.058;2022-11-03T03:38:53;9.60;;;2.25;;
13891;SDS011;7016;48.172;8.058;2022-11-03T03:41:25;9.27;;;2.25;;
13891;SDS011;7016;48.172;8.058;2022-11-03T03:44:05;7.25;;;2.55;;
13891;SDS011;7016;48.172;8.058;2022-11-03T03:46:38;4.95;;;2.03;;
13891;SDS011;7016;48.172;8.058;2022-11-03T03:49:14;7.88;;;2.17;;
13891;SDS011;7016;48.172;8.058;2022-11-03T03:51:49;7.43;;;2.10;;
13891;SDS011;7016;48.172;8.058;2022-11-03T03:54:25;4.50;;;1.73;;
13891;SDS011;7016;48.172;8.058;2022-11-03T03:56:55;9.95;;;1.98;;
13891;SDS011;7016;48.172;8.058;2022-11-03T03:59:38;4.63;;;1.67;;
13891;SDS011;7016;48.172;8.058;2022-11-03T04:02:08;4.55;;;1.85;;
13891;SDS011;7016;48.172;8.058;2022-11-03T04:04:35;5.07;;;1.60;;
13891;SDS011;7016;48.172;8.058;2022-11-03T04:07:25;5.90;;;1.90;;
13891;SDS011;7016;48.172;8.058;2022-11-03T04:10:17;6.70;;;1.58;;
13891;SDS011;7016;48.172;8.058;2022-11-03T04:12:56;3.03;;;1.50;;
13891;SDS011;7016;48.172;8.058;2022-11-03T04:15:49;5.15;;;1.60;;
13891;SDS011;7016;48.172;8.058;2022-11-03T04:18:34;9.77;;;2.00;;
13891;SDS011;7016;48.172;8.058;2022-11-03T04:21:19;4.95;;;1.55;;
13891;SDS011;7016;48.172;8.058;2022-11-03T04:24:09;5.15;;;1.65;;
13891;SDS011;7016;48.172;8.058;2022-11-03T04:26:41;3.20;;;1.70;;
13891;SDS011;7016;48.172;8.058;2022-11-03T04:29:16;3.50;;;1.67;;
13891;SDS011;7016;48.172;8.058;2022-11-03T04:31:45;5.68;;;1.83;;
13891;SDS011;7016;48.172;8.058;2022-11-03T04:34:11;3.55;;;1.60;;
13891;SDS011;7016;48.172;8.058;2022-11-03T04:36:51;5.40;;;1.85;;
13891;SDS011;7016;48.172;8.058;2022-11-03T04:39:21;7.00;;;1.95;;
13891;SDS011;7016;48.172;8.058;2022-11-03T04:41:50;4.45;;;1.67;;
13891;SDS011;7016;48.172;8.058;2022-11-03T04:44:19;7.68;;;1.77;;
13891;SDS011;7016;48.172;8.058;2022-11-03T04:47:00;6.78;;;2.38;;
13891;SDS011;7016;48.172;8.058;2022-11-03T04:49:32;4.88;;;1.63;;
13891;SDS011;7016;48.172;8.058;2022-11-03T04:51:59;10.32;;;2.30;;
13891;SDS011;7016;48.172;8.058;2022-11-03T04:54:28;8.25;;;2.17;;
13891;SDS011;7016;48.172;8.058;2022-11-03T04:57:15;6.32;;;2.40;;
13891;SDS011;7016;48.172;8.058;2022-11-03T04:59:55;5.88;;;2.00;;
13891;SDS011;7016;48.172;8.058;2022-11-03T05:02:30;6.95;;;2.20;;
13891;SDS011;7016;48.172;8.058;2022-11-03T05:05:04;6.50;;;2.33;;
13891;SDS011;7016;48.172;8.058;2022-11-03T05:07:53;5.38;;;1.58;;
13891;SDS011;7016;48.172;8.058;2022-11-03T05:10:25;6.28;;;1.80;;
13891;SDS011;7016;48.172;8.058;2022-11-03T05:12:54;4.40;;;1.60;;
13891;SDS011;7016;48.172;8.058;2022-11-03T05:15:35;4.90;;;1.95;;
13891;SDS011;7016;48.172;8.058;2022-11-03T05:18:13;8.30;;;2.40;;
13891;SDS011;7016;48.172;8.058;2022-11-03T05:20:58;7.45;;;3.47;;
13891;SDS011;7016;48.172;8.058;2022-11-03T05:23:39;7.65;;;3.65;;
13891;SDS011;7016;48.172;8.058;2022-11-03T05:26:20;11.15;;;4.78;;
13891;SDS011;7016;48.172;8.058;2022-11-03T05:29:02;9.50;;;4.00;;
13891;SDS011;7016;48.172;8.058;2022-11-03T05:31:33;7.82;;;3.97;;
13891;SDS011;7016;48.172;8.058;2022-11-03T05:34:04;6.95;;;2.70;;
13891;SDS011;7016;48.172;8.058;2022-11-03T05:37:05;5.65;;;2.55;;
13891;SDS011;7016;48.172;8.058;2022-11-03T05:39:51;8.77;;;2.90;;
13891;SDS011;7016;48.172;8.058;2022-11-03T05:42:33;7.70;;;3.05;;
13891;SDS011;7016;48.172;8.058;2022-11-03T05:45:22;6.80;;;2.08;;
13891;SDS011;7016;48.172;8.058;2022-11-03T05:47:51;6.63;;;2.25;;
13891;SDS011;7016;48.172;8.058;2022-11-03T05:50:25;5.13;;;1.83;;
13891;SDS011;7016;48.172;8.058;2022-11-03T05:58:14;8.05;;;2.47;;
13891;SDS011;7016;48.172;8.058;2022-11-03T06:00:50;9.70;;;2.25;;
13891;SDS011;7016;48.172;8.058;2022-11-03T06:03:27;7.75;;;2.50;;
13891;SDS011;7016;48.172;8.058;2022-11-03T06:05:58;5.13;;;2.10;;
13891;SDS011;7016;48.172;8.058;2022-11-03T06:08:35;9.45;;;2.13;;
13891;SDS011;7016;48.172;8.058;2022-11-03T06:11:07;6.18;;;2.33;;
13891;SDS011;7016;48.172;8.058;2022-11-03T06:13:49;7.72;;;2.15;;
13891;SDS011;7016;48.172;8.058;2022-11-03T06:16:36;6.97;;;2.05;;
13891;SDS011;7016;48.172;8.058;2022-11-03T06:19:17;7.03;;;2.65;;
13891;SDS011;7016;48.172;8.058;2022-11-03T06:21:46;9.95;;;2.33;;
13891;SDS011;7016;48.172;8.058;2022-11-03T06:24:18;5.47;;;2.20;;
13891;SDS011;7016;48.172;8.058;2022-11-03T06:26:47;7.70;;;2.60;;
13891;SDS011;7016;48.172;8.058;2022-11-03T06:29:20;5.60;;;2.40;;
13891;SDS011;7016;48.172;8.058;2022-11-03T06:31:49;5.65;;;2.25;;
13891;SDS011;7016;48.172;8.058;2022-11-03T06:40:00;8.73;;;2.60;;
13891;SDS011;7016;48.172;8.058;2022-11-03T06:42:51;9.90;;;3.47;;
13891;SDS011;7016;48.172;8.058;2022-11-03T06:45:23;11.32;;;3.67;;
13891;SDS011;7016;48.172;8.058;2022-11-03T06:47:53;14.95;;;4.35;;
13891;SDS011;7016;48.172;8.058;2022-11-03T06:50:32;10.18;;;4.32;;
13891;SDS011;7016;48.172;8.058;2022-11-03T06:53:00;5.50;;;2.85;;
13891;SDS011;7016;48.172;8.058;2022-11-03T06:55:34;10.65;;;2.70;;
13891;SDS011;7016;48.172;8.058;2022-11-03T06:58:14;6.50;;;2.40;;
13891;SDS011;7016;48.172;8.058;2022-11-03T07:01:02;7.38;;;2.97;;
13891;SDS011;7016;48.172;8.058;2022-11-03T07:03:40;9.35;;;3.15;;
13891;SDS011;7016;48.172;8.058;2022-11-03T07:06:20;12.48;;;3.35;;
13891;SDS011;7016;48.172;8.058;2022-11-03T07:08:52;10.75;;;3.47;;
13891;SDS011;7016;48.172;8.058;2022-11-03T07:11:22;10.25;;;3.53;;
13891;SDS011;7016;48.172;8.058;2022-11-03T07:14:21;8.68;;;2.97;;
13891;SDS011;7016;48.172;8.058;2022-11-03T07:17:05;8.27;;;3.15;;
13891;SDS011;7016;48.172;8.058;2022-11-03T07:19:50;8.65;;;3.30;;
13891;SDS011;7016;48.172;8.058;2022-11-03T07:22:26;7.55;;;3.30;;
13891;SDS011;7016;48.172;8.058;2022-11-03T07:24:59;6.85;;;3.00;;
13891;SDS011;7016;48.172;8.058;2022-11-03T07:27:36;10.02;;;2.85;;
13891;SDS011;7016;48.172;8.058;2022-11-03T07:33:12;4.80;;;2.63;;
13891;SDS011;7016;48.172;8.058;2022-11-03T07:35:56;7.70;;;2.83;;
13891;SDS011;7016;48.172;8.058;2022-11-03T07:38:24;7.78;;;3.42;;
13891;SDS011;7016;48.172;8.058;2022-11-03T07:41:00;5.65;;;2.47;;
13891;SDS011;7016;48.172;8.058;2022-11-03T07:43:30;9.23;;;2.95;;
13891;SDS011;7016;48.172;8.058;2022-11-03T07:45:59;10.30;;;3.38;;
13891;SDS011;7016;48.172;8.058;2022-11-03T07:48:42;8.00;;;3.15;;
13891;SDS011;7016;48.172;8.058;2022-11-03T07:51:26;12.90;;;3.58;;
13891;SDS011;7016;48.172;8.058;2022-11-03T07:54:15;6.30;;;2.90;;
13891;SDS011;7016;48.172;8.058;2022-11-03T07:56:49;7.90;;;4.78;;
13891;SDS011;7016;48.172;8.058;2022-11-03T07:59:40;7.25;;;2.88;;
13891;SDS011;7016;48.172;8.058;2022-11-03T08:05:03;9.27;;;3.42;;
13891;SDS011;7016;48.172;8.058;2022-11-03T08:07:38;7.55;;;3.58;;
13891;SDS011;7016;48.172;8.058;2022-11-03T08:10:10;9.60;;;3.33;;
13891;SDS011;7016;48.172;8.058;2022-11-03T08:12:45;17.73;;;5.07;;
13891;SDS011;7016;48.172;8.058;2022-11-03T08:15:15;14.77;;;4.05;;
13891;SDS011;7016;48.172;8.058;2022-11-03T08:17:49;7.40;;;3.38;;
13891;SDS011;7016;48.172;8.058;2022-11-03T08:20:18;7.38;;;4.00;;
13891;SDS011;7016;48.172;8.058;2022-11-03T08:25:24;8.60;;;4.30;;
13891;SDS011;7016;48.172;8.058;2022-11-03T08:28:00;8.85;;;4.20;;
13891;SDS011;7016;48.172;8.058;2022-11-03T08:30:39;11.77;;;5.68;;
13891;SDS011;7016;48.172;8.058;2022-11-03T08:33:05;21.60;;;6.28;;
13891;SDS011;7016;48.172;8.058;2022-11-03T08:35:34;18.58;;;5.47;;
13891;SDS011;7016;48.172;8.058;2022-11-03T08:38:01;17.73;;;7.90;;
13891;SDS011;7016;48.172;8.058;2022-11-03T08:40:33;9.90;;;5.07;;
13891;SDS011;7016;48.172;8.058;2022-11-03T08:43:07;16.15;;;6.57;;
13891;SDS011;7016;48.172;8.058;2022-11-03T08:46:07;9.13;;;4.10;;
13891;SDS011;7016;48.172;8.058;2022-11-03T08:48:35;8.32;;;3.95;;
13891;SDS011;7016;48.172;8.058;2022-11-03T08:51:22;13.43;;;5.22;;
13891;SDS011;7016;48.172;8.058;2022-11-03T08:53:49;18.60;;;5.13;;
13891;SDS011;7016;48.172;8.058;2022-11-03T08:56:19;11.93;;;6.30;;
13891;SDS011;7016;48.172;8.058;2022-11-03T08:58:46;11.70;;;5.43;;
13891;SDS011;7016;48.172;8.058;2022-11-03T09:01:18;13.48;;;5.63;;
13891;SDS011;7016;48.172;8.058;2022-11-03T09:03:48;14.75;;;8.82;;
13891;SDS011;7016;48.172;8.058;2022-11-03T09:06:27;14.43;;;7.53;;
13891;SDS011;7016;48.172;8.058;2022-11-03T09:08:53;12.38;;;5.78;;
13891;SDS011;7016;48.172;8.058;2022-11-03T09:11:20;11.38;;;6.07;;
13891;SDS011;7016;48.172;8.058;2022-11-03T09:13:56;8.25;;;3.83;;
13891;SDS011;7016;48.172;8.058;2022-11-03T09:16:30;8.40;;;3.42;;
13891;SDS011;7016;48.172;8.058;2022-11-03T09:19:02;7.10;;;3.65;;
13891;SDS011;7016;48.172;8.058;2022-11-03T09:21:33;13.85;;;3.85;;
13891;SDS011;7016;48.172;8.058;2022-11-03T09:24:02;8.13;;;3.75;;
13891;SDS011;7016;48.172;8.058;2022-11-03T09:26:46;11.27;;;4.07;;
13891;SDS011;7016;48.172;8.058;2022-11-03T09:29:18;10.10;;;4.20;;
13891;SDS011;7016;48.172;8.058;2022-11-03T09:31:48;9.25;;;4.32;;
13891;SDS011;7016;48.172;8.058;2022-11-03T09:34:19;9.68;;;4.45;;
13891;SDS011;7016;48.172;8.058;2022-11-03T09:36:59;11.48;;;4.38;;
13891;SDS011;7016;48.172;8.058;2022-11-03T09:39:36;8.25;;;4.82;;
13891;SDS011;7016;48.172;8.058;2022-11-03T09:42:05;11.80;;;5.78;;
13891;SDS011;7016;48.172;8.058;2022-11-03T09:44:40;7.40;;;4.00;;
13891;SDS011;7016;48.172;8.058;2022-11-03T09:47:12;11.38;;;5.60;;
13891;SDS011;7016;48.172;8.058;2022-11-03T09:49:47;17.55;;;8.43;;
13891;SDS011;7016;48.172;8.058;2022-11-03T09:52:20;15.52;;;5.93;;
13891;SDS011;7016;48.172;8.058;2022-11-03T09:54:58;20.17;;;6.75;;
13891;SDS011;7016;48.172;8.058;2022-11-03T09:57:29;14.15;;;5.85;;
13891;SDS011;7016;48.172;8.058;2022-11-03T09:59:56;10.95;;;6.13;;
13891;SDS011;7016;48.172;8.058;2022-11-03T10:02:28;13.00;;;6.75;;
13891;SDS011;7016;48.172;8.058;2022-11-03T10:05:07;14.68;;;7.13;;
13891;SDS011;7016;48.172;8.058;2022-11-03T10:07:51;15.80;;;7.32;;
13891;SDS011;7016;48.172;8.058;2022-11-03T10:10:29;18.95;;;8.35;;
13891;SDS011;7016;48.172;8.058;2022-11-03T10:12:57;14.30;;;6.13;;
13891;SDS011;7016;48.172;8.058;2022-11-03T10:15:28;13.10;;;6.28;;
13891;SDS011;7016;48.172;8.058;2022-11-03T10:17:55;14.75;;;6.45;;
13891;SDS011;7016;48.172;8.058;2022-11-03T10:20:27;12.68;;;6.68;;
13891;SDS011;7016;48.172;8.058;2022-11-03T10:23:04;13.98;;;6.57;;
13891;SDS011;7016;48.172;8.058;2022-11-03T10:25:43;12.38;;;5.70;;
13891;SDS011;7016;48.172;8.058;2022-11-03T10:28:28;10.90;;;5.85;;
13891;SDS011;7016;48.172;8.058;2022-11-03T10:31:07;19.70;;;10.35;;
13891;SDS011;7016;48.172;8.058;2022-11-03T10:39:45;19.27;;;10.90;;
13891;SDS011;7016;48.172;8.058;2022-11-03T10:45:17;11.65;;;6.05;;
13891;SDS011;7016;48.172;8.058;2022-11-03T10:48:01;13.37;;;4.73;;
13891;SDS011;7016;48.172;8.058;2022-11-03T10:50:38;12.38;;;7.00;;
13891;SDS011;7016;48.172;8.058;2022-11-03T10:53:08;18.23;;;9.90;;
13891;SDS011;7016;48.172;8.058;2022-11-03T10:55:49;17.08;;;8.23;;
13891;SDS011;7016;48.172;8.058;2022-11-03T10:58:26;15.95;;;8.10;;
13891;SDS011;7016;48.172;8.058;2022-11-03T11:01:08;9.20;;;5.97;;
13891;SDS011;7016;48.172;8.058;2022-11-03T11:03:46;14.27;;;6.03;;
13891;SDS011;7016;48.172;8.058;2022-11-03T11:06:33;9.95;;;6.00;;
13891;SDS011;7016;48.172;8.058;2022-11-03T11:09:36;10.18;;;5.97;;
13891;SDS011;7016;48.172;8.058;2022-11-03T11:12:17;29.10;;;14.02;;
13891;SDS011;7016;48.172;8.058;2022-11-03T11:14:55;44.55;;;21.75;;
13891;SDS011;7016;48.172;8.058;2022-11-03T11:22:58;25.25;;;12.70;;
13891;SDS011;7016;48.172;8.058;2022-11-03T11:26:16;20.60;;;11.75;;
13891;SDS011;7016;48.172;8.058;2022-11-03T11:31:41;21.13;;;10.40;;
13891;SDS011;7016;48.172;8.058;2022-11-03T11:44:56;24.30;;;13.45;;
13891;SDS011;7016;48.172;8.058;2022-11-03T11:47:28;20.98;;;11.27;;
13891;SDS011;7016;48.172;8.058;2022-11-03T11:50:21;20.65;;;11.68;;
13891;SDS011;7016;48.172;8.058;2022-11-03T11:52:58;12.82;;;7.07;;
13891;SDS011;7016;48.172;8.058;2022-11-03T12:00:55;19.33;;;8.93;;
13891;SDS011;7016;48.172;8.058;2022-11-03T12:03:41;18.80;;;10.20;;
13891;SDS011;7016;48.172;8.058;2022-11-03T12:06:14;22.67;;;10.52;;
13891;SDS011;7016;48.172;8.058;2022-11-03T12:11:51;16.38;;;8.23;;
13891;SDS011;7016;48.172;8.058;2022-11-03T12:19:53;14.50;;;7.60;;
13891;SDS011;7016;48.172;8.058;2022-11-03T12:24:55;11.93;;;7.28;;
13891;SDS011;7016;48.172;8.058;2022-11-03T12:30:10;14.82;;;7.03;;
13891;SDS011;7016;48.172;8.058;2022-11-03T12:32:40;8.75;;;6.15;;
13891;SDS011;7016;48.172;8.058;2022-11-03T12:35:07;10.35;;;6.10;;
13891;SDS011;7016;48.172;8.058;2022-11-03T12:37:38;8.68;;;4.30;;
13891;SDS011;7016;48.172;8.058;2022-11-03T12:40:08;9.43;;;4.50;;
13891;SDS011;7016;48.172;8.058;2022-11-03T12:42:39;9.48;;;4.13;;
13891;SDS011;7016;48.172;8.058;2022-11-03T12:45:06;7.47;;;4.13;;
13891;SDS011;7016;48.172;8.058;2022-11-03T12:47:33;8.88;;;4.35;;
13891;SDS011;7016;48.172;8.058;2022-11-03T12:50:02;10.38;;;5.53;;
13891;SDS011;7016;48.172;8.058;2022-11-03T12:52:29;10.68;;;4.93;;
13891;SDS011;7016;48.172;8.058;2022-11-03T12:54:55;9.10;;;5.05;;
13891;SDS011;7016;48.172;8.058;2022-11-03T12:57:24;7.22;;;4.43;;
13891;SDS011;7016;48.172;8.058;2022-11-03T12:59:51;15.10;;;10.45;;
13891;SDS011;7016;48.172;8.058;2022-11-03T13:02:24;17.95;;;10.23;;
13891;SDS011;7016;48.172;8.058;2022-11-03T13:05:02;9.23;;;4.90;;
13891;SDS011;7016;48.172;8.058;2022-11-03T13:07:34;12.43;;;5.60;;
13891;SDS011;7016;48.172;8.058;2022-11-03T13:10:03;9.02;;;5.43;;
13891;SDS011;7016;48.172;8.058;2022-11-03T13:12:32;8.43;;;4.72;;
13891;SDS011;7016;48.172;8.058;2022-11-03T13:15:03;7.82;;;5.03;;
13891;SDS011;7016;48.172;8.058;2022-11-03T13:17:40;14.10;;;6.05;;
13891;SDS011;7016;48.172;8.058;2022-11-03T13:20:23;6.88;;;3.80;;
13891;SDS011;7016;48.172;8.058;2022-11-03T13:22:53;8.15;;;4.45;;
13891;SDS011;7016;48.172;8.058;2022-11-03T13:25:24;13.48;;;5.68;;
13891;SDS011;7016;48.172;8.058;2022-11-03T13:28:00;10.18;;;3.92;;
13891;SDS011;7016;48.172;8.058;2022-11-03T13:30:31;11.25;;;4.00;;
13891;SDS011;7016;48.172;8.058;2022-11-03T13:33:03;13.02;;;4.97;;
13891;SDS011;7016;48.172;8.058;2022-11-03T13:35:30;10.38;;;6.07;;
13891;SDS011;7016;48.172;8.058;2022-11-03T13:37:56;13.90;;;6.82;;
13891;SDS011;7016;48.172;8.058;2022-11-03T13:40:23;9.77;;;4.55;;
13891;SDS011;7016;48.172;8.058;2022-11-03T13:42:49;11.75;;;5.75;;
13891;SDS011;7016;48.172;8.058;2022-11-03T13:45:16;8.60;;;5.50;;
13891;SDS011;7016;48.172;8.058;2022-11-03T13:47:43;7.80;;;4.68;;
13891;SDS011;7016;48.172;8.058;2022-11-03T13:50:16;10.27;;;5.15;;
13891;SDS011;7016;48.172;8.058;2022-11-03T13:52:47;19.23;;;4.80;;
13891;SDS011;7016;48.172;8.058;2022-11-03T13:55:16;7.28;;;4.38;;
13891;SDS011;7016;48.172;8.058;2022-11-03T13:57:43;11.35;;;5.57;;
13891;SDS011;7016;48.172;8.058;2022-11-03T14:00:15;10.48;;;3.97;;
13891;SDS011;7016;48.172;8.058;2022-11-03T14:02:42;6.65;;;4.38;;
13891;SDS011;7016;48.172;8.058;2022-11-03T14:05:09;8.70;;;4.28;;
13891;SDS011;7016;48.172;8.058;2022-11-03T14:07:41;9.82;;;4.15;;
13891;SDS011;7016;48.172;8.058;2022-11-03T14:10:16;8.45;;;4.38;;
13891;SDS011;7016;48.172;8.058;2022-11-03T14:12:45;8.10;;;3.85;;
13891;SDS011;7016;48.172;8.058;2022-11-03T14:15:19;12.32;;;5.25;;
13891;SDS011;7016;48.172;8.058;2022-11-03T14:17:46;7.38;;;4.18;;
13891;SDS011;7016;48.172;8.058;2022-11-03T14:20:27;6.57;;;3.65;;
13891;SDS011;7016;48.172;8.058;2022-11-03T14:22:54;9.38;;;3.90;;
13891;SDS011;7016;48.172;8.058;2022-11-03T14:25:30;10.32;;;3.70;;
13891;SDS011;7016;48.172;8.058;2022-11-03T14:27:59;6.88;;;4.32;;
13891;SDS011;7016;48.172;8.058;2022-11-03T14:30:25;6.55;;;3.70;;
13891;SDS011;7016;48.172;8.058;2022-11-03T14:32:54;9.68;;;4.82;;
13891;SDS011;7016;48.172;8.058;2022-11-03T14:35:26;17.77;;;7.60;;
13891;SDS011;7016;48.172;8.058;2022-11-03T14:37:53;22.52;;;12.57;;
13891;SDS011;7016;48.172;8.058;2022-11-03T14:40:20;20.42;;;11.30;;
13891;SDS011;7016;48.172;8.058;2022-11-03T14:43:10;8.82;;;4.47;;
13891;SDS011;7016;48.172;8.058;2022-11-03T14:45:37;10.18;;;4.97;;
13891;SDS011;7016;48.172;8.058;2022-11-03T14:48:09;7.32;;;4.72;;
13891;SDS011;7016;48.172;8.058;2022-11-03T14:50:47;7.65;;;4.95;;
13891;SDS011;7016;48.172;8.058;2022-11-03T14:53:17;8.40;;;4.10;;
13891;SDS011;7016;48.172;8.058;2022-11-03T14:55:46;7.70;;;4.13;;
13891;SDS011;7016;48.172;8.058;2022-11-03T14:58:14;6.20;;;3.45;;
13891;SDS011;7016;48.172;8.058;2022-11-03T15:00:43;7.82;;;4.22;;
13891;SDS011;7016;48.172;8.058;2022-11-03T15:03:10;20.88;;;11.55;;
13891;SDS011;7016;48.172;8.058;2022-11-03T15:05:47;16.23;;;9.13;;
13891;SDS011;7016;48.172;8.058;2022-11-03T15:08:20;13.68;;;7.43;;
13891;SDS011;7016;48.172;8.058;2022-11-03T15:10:53;9.57;;;6.20;;
13891;SDS011;7016;48.172;8.058;2022-11-03T15:13:23;8.80;;;5.45;;
13891;SDS011;7016;48.172;8.058;2022-11-03T15:15:55;9.48;;;3.90;;
13891;SDS011;7016;48.172;8.058;2022-11-03T15:21:06;6.95;;;3.42;;
13891;SDS011;7016;48.172;8.058;2022-11-03T15:23:39;9.75;;;4.82;;
13891;SDS011;7016;48.172;8.058;2022-11-03T15:26:06;11.02;;;7.00;;
13891;SDS011;7016;48.172;8.058;2022-11-03T15:28:32;11.30;;;7.75;;
13891;SDS011;7016;48.172;8.058;2022-11-03T15:31:04;10.38;;;6.75;;
13891;SDS011;7016;48.172;8.058;2022-11-03T15:33:34;14.75;;;10.30;;
13891;SDS011;7016;48.172;8.058;2022-11-03T15:36:04;16.10;;;8.40;;
13891;SDS011;7016;48.172;8.058;2022-11-03T15:38:36;13.32;;;7.50;;
13891;SDS011;7016;48.172;8.058;2022-11-03T15:41:03;11.70;;;7.15;;
13891;SDS011;7016;48.172;8.058;2022-11-03T15:43:45;13.75;;;7.30;;
13891;SDS011;7016;48.172;8.058;2022-11-03T15:46:15;12.65;;;7.25;;
13891;SDS011;7016;48.172;8.058;2022-11-03T15:48:49;11.80;;;6.40;;
13891;SDS011;7016;48.172;8.058;2022-11-03T15:51:18;14.57;;;7.70;;
13891;SDS011;7016;48.172;8.058;2022-11-03T15:53:45;12.80;;;6.88;;
13891;SDS011;7016;48.172;8.058;2022-11-03T15:56:14;16.45;;;7.25;;
13891;SDS011;7016;48.172;8.058;2022-11-03T15:58:44;16.50;;;8.27;;
13891;SDS011;7016;48.172;8.058;2022-11-03T16:01:16;14.45;;;8.88;;
13891;SDS011;7016;48.172;8.058;2022-11-03T16:03:42;16.48;;;7.80;;
13891;SDS011;7016;48.172;8.058;2022-11-03T16:06:09;14.27;;;7.65;;
13891;SDS011;7016;48.172;8.058;2022-11-03T16:08:38;15.38;;;8.23;;
13891;SDS011;7016;48.172;8.058;2022-11-03T16:11:10;19.33;;;11.02;;
13891;SDS011;7016;48.172;8.058;2022-11-03T16:13:37;20.50;;;12.02;;
13891;SDS011;7016;48.172;8.058;2022-11-03T16:16:04;21.02;;;12.75;;
13891;SDS011;7016;48.172;8.058;2022-11-03T16:18:33;27.05;;;12.32;;
13891;SDS011;7016;48.172;8.058;2022-11-03T16:21:06;25.48;;;13.80;;
13891;SDS011;7016;48.172;8.058;2022-11-03T16:23:35;19.67;;;10.98;;
13891;SDS011;7016;48.172;8.058;2022-11-03T16:26:01;10.98;;;6.05;;
13891;SDS011;7016;48.172;8.058;2022-11-03T16:28:31;11.88;;;7.30;;
13891;SDS011;7016;48.172;8.058;2022-11-03T16:31:03;11.80;;;6.03;;
13891;SDS011;7016;48.172;8.058;2022-11-03T16:33:33;10.90;;;6.50;;
13891;SDS011;7016;48.172;8.058;2022-11-03T16:36:01;17.23;;;6.38;;
13891;SDS011;7016;48.172;8.058;2022-11-03T16:38:28;13.55;;;6.63;;
13891;SDS011;7016;48.172;8.058;2022-11-03T16:40:55;11.23;;;6.32;;
13891;SDS011;7016;48.172;8.058;2022-11-03T16:43:24;14.10;;;6.20;;
13891;SDS011;7016;48.172;8.058;2022-11-03T16:45:57;15.80;;;6.03;;
13891;SDS011;7016;48.172;8.058;2022-11-03T16:48:38;11.10;;;5.82;;
13891;SDS011;7016;48.172;8.058;2022-11-03T16:51:20;10.52;;;5.30;;
13891;SDS011;7016;48.172;8.058;2022-11-03T16:53:46;12.38;;;5.75;;
13891;SDS011;7016;48.172;8.058;2022-11-03T16:56:11;13.05;;;7.65;;
13891;SDS011;7016;48.172;8.058;2022-11-03T16:58:38;16.85;;;7.68;;
13891;SDS011;7016;48.172;8.058;2022-11-03T17:01:04;15.02;;;7.80;;
13891;SDS011;7016;48.172;8.058;2022-11-03T17:03:30;14.05;;;7.22;;
13891;SDS011;7016;48.172;8.058;2022-11-03T17:05:56;10.95;;;6.07;;
13891;SDS011;7016;48.172;8.058;2022-11-03T17:08:22;11.88;;;4.70;;
13891;SDS011;7016;48.172;8.058;2022-11-03T17:10:48;6.90;;;4.65;;
13891;SDS011;7016;48.172;8.058;2022-11-03T17:13:15;11.80;;;5.75;;